sensor_id;sensor_type;location;lat;lon;timestamp;pressure;altitude;pressure_sealevel;temperature;humidity
71149;BME280;59072;42.144;25.200;2023-01-28T00:01:43;99342.19;;;3.70;100.00
71149;BME280;59072;42.144;25.200;2023-01-28T00:04:08;99345.59;;;3.64;100.00
71149;BME280;59072;42.144;25.200;2023-01-28T00:06:33;99344.63;;;3.72;100.00
71149;BME280;59072;42.144;25.200;2023-01-28T00:08:59;99351.44;;;3.88;100.00
71149;BME280;59072;42.144;25.200;2023-01-28T00:11:25;99321.31;;;3.75;100.00
71149;BME280;59072;42.144;25.200;2023-01-28T00:13:54;99358.25;;;4.10;100.00
71149;BME280;59072;42.144;25.200;2023-01-28T00:16:20;99358.63;;;4.00;100.00
71149;BME280;59072;42.144;25.200;2023-01-28T00:18:47;99309.41;;;3.86;100.00
71149;BME280;59072;42.144;25.200;2023-01-28T00:21:14;99354.97;;;4.01;100.00
71149;BME280;59072;42.144;25.200;2023-01-28T00:23:41;99355.13;;;3.93;100.00
71149;BME280;59072;42.144;25.200;2023-01-28T00:26:12;99339.81;;;3.82;100.00
71149;BME280;59072;42.144;25.200;2023-01-28T00:28:38;99353.09;;;3.95;100.00
71149;BME280;59072;42.144;25.200;2023-01-28T00:31:08;99339.25;;;3.87;100.00
71149;BME280;59072;42.144;25.200;2023-01-28T00:33:35;99338.06;;;3.89;100.00
71149;BME280;59072;42.144;25.200;2023-01-28T00:36:02;99365.00;;;4.13;100.00
71149;BME280;59072;42.144;25.200;2023-01-28T00:38:28;99366.09;;;4.25;100.00
71149;BME280;59072;42.144;25.200;2023-01-28T00:40:54;99367.47;;;4.21;100.00
71149;BME280;59072;42.144;25.200;2023-01-28T00:43:20;99370.13;;;4.21;100.00
71149;BME280;59072;42.144;25.200;2023-01-28T00:45:46;99354.44;;;4.13;100.00
71149;BME280;59072;42.144;25.200;2023-01-28T00:48:11;99369.88;;;4.16;100.00
71149;BME280;59072;42.144;25.200;2023-01-28T00:50:37;99381.50;;;4.28;100.00
71149;BME280;59072;42.144;25.200;2023-01-28T00:53:03;99380.56;;;4.36;100.00
71149;BME280;59072;42.144;25.200;2023-01-28T00:55:29;99357.72;;;4.21;100.00
71149;BME280;59072;42.144;25.200;2023-01-28T00:57:54;99378.25;;;4.26;100.00
71149;BME280;59072;42.144;25.200;2023-01-28T01:00:20;99386.97;;;4.27;100.00
71149;BME280;59072;42.144;25.200;2023-01-28T01:02:50;99382.88;;;4.17;100.00
71149;BME280;59072;42.144;25.200;2023-01-28T01:05:16;99394.69;;;4.21;100.00
71149;BME280;59072;42.144;25.200;2023-01-28T01:07:42;99389.22;;;4.23;100.00
71149;BME280;59072;42.144;25.200;2023-01-28T01:10:12;99395.03;;;4.53;100.00
71149;BME280;59072;42.144;25.200;2023-01-28T01:12:38;99394.81;;;4.41;100.00
71149;BME280;59072;42.144;25.200;2023-01-28T01:15:04;99379.66;;;4.22;100.00
71149;BME280;59072;42.144;25.200;2023-01-28T01:17:33;99396.38;;;4.36;100.00
71149;BME280;59072;42.144;25.200;2023-01-28T01:19:58;99377.72;;;4.37;100.00
71149;BME280;59072;42.144;25.200;2023-01-28T01:22:24;99395.56;;;4.35;100.00
71149;BME280;59072;42.144;25.200;2023-01-28T01:24:49;99385.03;;;4.35;100.00
71149;BME280;59072;42.144;25.200;2023-01-28T01:27:15;99400.00;;;4.28;100.00
71149;BME280;59072;42.144;25.200;2023-01-28T01:29:40;99390.66;;;4.26;100.00
71149;BME280;59072;42.144;25.200;2023-01-28T01:32:06;99398.84;;;4.37;100.00
71149;BME280;59072;42.144;25.200;2023-01-28T01:34:31;99399.25;;;4.41;100.00
71149;BME280;59072;42.144;25.200;2023-01-28T01:36:57;99395.53;;;4.29;100.00
71149;BME280;59072;42.144;25.200;2023-01-28T01:39:22;99394.19;;;4.39;100.00
71149;BME280;59072;42.144;25.200;2023-01-28T01:41:48;99405.69;;;4.25;100.00
71149;BME280;59072;42.144;25.200;2023-01-28T01:47:17;99411.59;;;4.34;100.00
71149;BME280;59072;42.144;25.200;2023-01-28T01:49:43;99394.72;;;4.28;100.00
71149;BME280;59072;42.144;25.200;2023-01-28T01:52:14;99411.56;;;4.27;100.00
71149;BME280;59072;42.144;25.200;2023-01-28T01:54:43;99410.56;;;4.28;100.00
71149;BME280;59072;42.144;25.200;2023-01-28T01:57:14;99408.09;;;4.27;100.00
71149;BME280;59072;42.144;25.200;2023-01-28T01:59:41;99405.88;;;4.30;100.00
71149;BME280;59072;42.144;25.200;2023-01-28T02:02:08;99419.72;;;4.32;100.00
71149;BME280;59072;42.144;25.200;2023-01-28T02:04:38;99420.25;;;4.21;100.00
71149;BME280;59072;42.144;25.200;2023-01-28T02:07:04;99414.84;;;4.29;100.00
71149;BME280;59072;42.144;25.200;2023-01-28T02:09:32;99420.75;;;4.31;100.00
71149;BME280;59072;42.144;25.200;2023-01-28T02:12:03;99423.09;;;4.19;100.00
71149;BME280;59072;42.144;25.200;2023-01-28T02:14:33;99411.75;;;4.26;100.00
71149;BME280;59072;42.144;25.200;2023-01-28T02:17:00;99426.16;;;4.23;100.00
71149;BME280;59072;42.144;25.200;2023-01-28T02:19:34;99411.47;;;4.14;100.00
71149;BME280;59072;42.144;25.200;2023-01-28T02:25:36;99425.63;;;4.34;100.00
71149;BME280;59072;42.144;25.200;2023-01-28T02:28:31;99430.88;;;4.34;100.00
71149;BME280;59072;42.144;25.200;2023-01-28T02:31:07;99414.50;;;4.11;100.00
71149;BME280;59072;42.144;25.200;2023-01-28T02:33:45;99433.06;;;4.24;100.00
71149;BME280;59072;42.144;25.200;2023-01-28T02:36:57;99442.84;;;4.30;100.00
71149;BME280;59072;42.144;25.200;2023-01-28T02:39:07;99424.91;;;4.19;100.00
71149;BME280;59072;42.144;25.200;2023-01-28T02:41:46;99440.00;;;4.25;100.00
71149;BME280;59072;42.144;25.200;2023-01-28T02:44:13;99445.88;;;4.27;100.00
71149;BME280;59072;42.144;25.200;2023-01-28T02:46:38;99433.22;;;4.16;100.00
71149;BME280;59072;42.144;25.200;2023-01-28T02:49:32;99454.31;;;4.16;100.00
71149;BME280;59072;42.144;25.200;2023-01-28T03:02:42;99461.66;;;4.20;100.00
71149;BME280;59072;42.144;25.200;2023-01-28T03:05:20;99444.19;;;4.19;100.00
71149;BME280;59072;42.144;25.200;2023-01-28T03:07:47;99437.25;;;4.12;100.00
71149;BME280;59072;42.144;25.200;2023-01-28T03:10:17;99439.88;;;4.12;100.00
71149;BME280;59072;42.144;25.200;2023-01-28T03:12:49;99461.63;;;4.14;100.00
71149;BME280;59072;42.144;25.200;2023-01-28T03:15:46;99440.50;;;4.14;100.00
71149;BME280;59072;42.144;25.200;2023-01-28T03:18:48;99457.97;;;4.15;100.00
71149;BME280;59072;42.144;25.200;2023-01-28T03:21:40;99444.16;;;4.13;100.00
71149;BME280;59072;42.144;25.200;2023-01-28T03:24:37;99438.03;;;4.12;100.00
71149;BME280;59072;42.144;25.200;2023-01-28T03:30:38;99456.34;;;4.14;100.00
71149;BME280;59072;42.144;25.200;2023-01-28T03:33:24;99457.97;;;4.15;100.00
71149;BME280;59072;42.144;25.200;2023-01-28T03:36:09;99443.31;;;4.12;99.35
71149;BME280;59072;42.144;25.200;2023-01-28T03:38:54;99453.19;;;4.25;99.69
71149;BME280;59072;42.144;25.200;2023-01-28T03:41:22;99450.72;;;4.23;99.69
71149;BME280;59072;42.144;25.200;2023-01-28T03:43:49;99466.59;;;4.30;99.81
71149;BME280;59072;42.144;25.200;2023-01-28T03:46:15;99458.34;;;4.12;100.00
71149;BME280;59072;42.144;25.200;2023-01-28T03:48:40;99460.22;;;4.18;99.38
71149;BME280;59072;42.144;25.200;2023-01-28T03:51:06;99485.81;;;4.17;100.00
71149;BME280;59072;42.144;25.200;2023-01-28T03:53:31;99475.44;;;4.16;100.00
71149;BME280;59072;42.144;25.200;2023-01-28T03:55:57;99461.13;;;4.03;100.00
71149;BME280;59072;42.144;25.200;2023-01-28T03:58:23;99480.97;;;4.21;100.00
71149;BME280;59072;42.144;25.200;2023-01-28T04:01:11;99478.66;;;4.11;100.00
71149;BME280;59072;42.144;25.200;2023-01-28T04:03:36;99466.81;;;4.00;100.00
71149;BME280;59072;42.144;25.200;2023-01-28T04:06:03;99489.88;;;4.20;100.00
71149;BME280;59072;42.144;25.200;2023-01-28T04:08:29;99486.44;;;4.19;99.88
71149;BME280;59072;42.144;25.200;2023-01-28T04:10:55;99480.47;;;4.11;100.00
71149;BME280;59072;42.144;25.200;2023-01-28T04:13:20;99477.44;;;4.14;100.00
71149;BME280;59072;42.144;25.200;2023-01-28T04:15:47;99490.03;;;4.12;99.94
71149;BME280;59072;42.144;25.200;2023-01-28T04:18:12;99483.97;;;4.18;98.88
71149;BME280;59072;42.144;25.200;2023-01-28T04:20:38;99486.44;;;4.19;99.39
71149;BME280;59072;42.144;25.200;2023-01-28T04:23:05;99472.09;;;4.00;99.25
71149;BME280;59072;42.144;25.200;2023-01-28T04:25:32;99501.47;;;4.19;98.64
71149;BME280;59072;42.144;25.200;2023-01-28T04:27:58;99497.94;;;4.12;97.97
71149;BME280;59072;42.144;25.200;2023-01-28T04:30:24;99508.56;;;3.97;99.67
71149;BME280;59072;42.144;25.200;2023-01-28T04:32:50;99512.59;;;3.93;99.38
71149;BME280;59072;42.144;25.200;2023-01-28T04:35:16;99502.66;;;3.95;99.73
71149;BME280;59072;42.144;25.200;2023-01-28T04:37:42;99502.59;;;4.10;97.34
71149;BME280;59072;42.144;25.200;2023-01-28T04:40:09;99490.41;;;4.09;98.06
71149;BME280;59072;42.144;25.200;2023-01-28T04:42:35;99508.88;;;4.09;98.07
71149;BME280;59072;42.144;25.200;2023-01-28T04:45:00;99518.69;;;4.15;98.55
71149;BME280;59072;42.144;25.200;2023-01-28T04:47:26;99523.34;;;4.13;98.98
71149;BME280;59072;42.144;25.200;2023-01-28T04:49:51;99499.59;;;3.91;99.53
71149;BME280;59072;42.144;25.200;2023-01-28T04:52:17;99533.88;;;4.13;99.76
71149;BME280;59072;42.144;25.200;2023-01-28T04:54:42;99529.91;;;4.23;97.81
71149;BME280;59072;42.144;25.200;2023-01-28T04:57:07;99507.06;;;4.09;97.63
71149;BME280;59072;42.144;25.200;2023-01-28T04:59:33;99536.41;;;4.21;98.19
71149;BME280;59072;42.144;25.200;2023-01-28T05:01:58;99539.25;;;4.26;98.40
71149;BME280;59072;42.144;25.200;2023-01-28T05:04:24;99520.28;;;4.16;98.57
71149;BME280;59072;42.144;25.200;2023-01-28T05:06:49;99553.66;;;4.23;99.08
71149;BME280;59072;42.144;25.200;2023-01-28T05:09:15;99541.81;;;4.13;99.38
71149;BME280;59072;42.144;25.200;2023-01-28T05:11:40;99523.38;;;3.98;98.58
71149;BME280;59072;42.144;25.200;2023-01-28T05:14:06;99533.63;;;4.08;98.17
71149;BME280;59072;42.144;25.200;2023-01-28T05:16:32;99532.13;;;3.98;98.19
71149;BME280;59072;42.144;25.200;2023-01-28T05:18:59;99531.78;;;4.08;95.96
71149;BME280;59072;42.144;25.200;2023-01-28T05:21:25;99545.97;;;4.00;96.31
71149;BME280;59072;42.144;25.200;2023-01-28T05:23:51;99554.09;;;4.06;95.76
71149;BME280;59072;42.144;25.200;2023-01-28T05:26:16;99557.88;;;4.18;97.02
71149;BME280;59072;42.144;25.200;2023-01-28T05:28:42;99544.53;;;4.26;97.08
71149;BME280;59072;42.144;25.200;2023-01-28T05:31:08;99569.06;;;4.20;96.24
71149;BME280;59072;42.144;25.200;2023-01-28T05:33:34;99561.63;;;4.30;94.68
71149;BME280;59072;42.144;25.200;2023-01-28T05:35:59;99539.94;;;4.07;96.92
71149;BME280;59072;42.144;25.200;2023-01-28T05:38:25;99572.22;;;4.09;96.94
71149;BME280;59072;42.144;25.200;2023-01-28T05:40:50;99554.16;;;4.12;95.93
71149;BME280;59072;42.144;25.200;2023-01-28T05:43:16;99570.88;;;4.19;96.49
71149;BME280;59072;42.144;25.200;2023-01-28T05:45:41;99586.16;;;4.02;98.79
71149;BME280;59072;42.144;25.200;2023-01-28T05:48:07;99571.88;;;3.97;98.83
71149;BME280;59072;42.144;25.200;2023-01-28T05:50:32;99580.88;;;4.02;99.31
71149;BME280;59072;42.144;25.200;2023-01-28T05:52:58;99564.78;;;3.97;98.37
71149;BME280;59072;42.144;25.200;2023-01-28T05:55:23;99571.19;;;4.10;97.82
71149;BME280;59072;42.144;25.200;2023-01-28T05:57:49;99579.38;;;4.15;97.23
71149;BME280;59072;42.144;25.200;2023-01-28T06:00:15;99584.25;;;4.18;98.01
71149;BME280;59072;42.144;25.200;2023-01-28T06:02:41;99593.19;;;4.38;96.29
71149;BME280;59072;42.144;25.200;2023-01-28T06:05:07;99601.81;;;4.26;95.39
71149;BME280;59072;42.144;25.200;2023-01-28T06:07:32;99601.91;;;4.39;95.54
71149;BME280;59072;42.144;25.200;2023-01-28T06:09:58;99610.84;;;4.38;95.06
71149;BME280;59072;42.144;25.200;2023-01-28T06:12:23;99604.25;;;4.27;94.54
71149;BME280;59072;42.144;25.200;2023-01-28T06:14:49;99611.66;;;4.38;94.54
71149;BME280;59072;42.144;25.200;2023-01-28T06:17:14;99595.56;;;4.12;95.54
71149;BME280;59072;42.144;25.200;2023-01-28T06:19:40;99610.91;;;4.23;96.73
71149;BME280;59072;42.144;25.200;2023-01-28T06:22:05;99629.25;;;4.53;93.36
71149;BME280;59072;42.144;25.200;2023-01-28T06:24:31;99626.16;;;4.49;94.77
71149;BME280;59072;42.144;25.200;2023-01-28T06:26:56;99610.72;;;4.25;95.45
71149;BME280;59072;42.144;25.200;2023-01-28T06:29:22;99642.59;;;4.45;95.70
71149;BME280;59072;42.144;25.200;2023-01-28T06:31:47;99623.47;;;4.42;96.40
71149;BME280;59072;42.144;25.200;2023-01-28T06:34:13;99632.50;;;4.55;95.48
71149;BME280;59072;42.144;25.200;2023-01-28T06:36:39;99644.06;;;4.75;93.45
71149;BME280;59072;42.144;25.200;2023-01-28T06:39:05;99619.56;;;4.60;94.06
71149;BME280;59072;42.144;25.200;2023-01-28T06:41:30;99630.44;;;4.50;94.99
71149;BME280;59072;42.144;25.200;2023-01-28T06:43:56;99615.31;;;4.37;93.95
71149;BME280;59072;42.144;25.200;2023-01-28T06:46:22;99643.13;;;4.61;95.14
71149;BME280;59072;42.144;25.200;2023-01-28T06:48:49;99657.03;;;4.70;93.07
71149;BME280;59072;42.144;25.200;2023-01-28T06:51:14;99659.06;;;4.68;92.62
71149;BME280;59072;42.144;25.200;2023-01-28T06:53:40;99657.13;;;4.83;92.08
71149;BME280;59072;42.144;25.200;2023-01-28T06:56:06;99642.00;;;4.71;92.51
71149;BME280;59072;42.144;25.200;2023-01-28T06:58:33;99663.19;;;4.77;94.10
71149;BME280;59072;42.144;25.200;2023-01-28T07:00:58;99666.94;;;4.90;94.04
71149;BME280;59072;42.144;25.200;2023-01-28T07:03:24;99654.63;;;4.75;93.28
71149;BME280;59072;42.144;25.200;2023-01-28T07:05:49;99642.63;;;4.73;94.42
71149;BME280;59072;42.144;25.200;2023-01-28T07:08:15;99648.50;;;4.68;93.94
71149;BME280;59072;42.144;25.200;2023-01-28T07:10:40;99676.66;;;4.82;92.14
71149;BME280;59072;42.144;25.200;2023-01-28T07:13:06;99663.81;;;4.79;92.79
71149;BME280;59072;42.144;25.200;2023-01-28T07:15:31;99683.41;;;4.92;92.72
71149;BME280;59072;42.144;25.200;2023-01-28T07:17:56;99662.19;;;4.78;95.03
71149;BME280;59072;42.144;25.200;2023-01-28T07:20:22;99694.94;;;5.12;93.16
71149;BME280;59072;42.144;25.200;2023-01-28T07:22:47;99672.81;;;5.13;92.64
71149;BME280;59072;42.144;25.200;2023-01-28T07:25:13;99697.22;;;5.15;92.54
71149;BME280;59072;42.144;25.200;2023-01-28T07:27:47;99687.47;;;5.16;91.00
71149;BME280;59072;42.144;25.200;2023-01-28T07:30:13;99703.84;;;5.33;91.84
71149;BME280;59072;42.144;25.200;2023-01-28T07:32:39;99693.66;;;5.30;88.24
71149;BME280;59072;42.144;25.200;2023-01-28T07:35:05;99704.25;;;5.30;89.97
71149;BME280;59072;42.144;25.200;2023-01-28T07:37:30;99697.84;;;5.17;89.61
71149;BME280;59072;42.144;25.200;2023-01-28T07:39:56;99699.88;;;5.15;89.54
71149;BME280;59072;42.144;25.200;2023-01-28T07:42:21;99692.84;;;5.29;90.41
71149;BME280;59072;42.144;25.200;2023-01-28T07:44:47;99718.56;;;5.42;89.78
71149;BME280;59072;42.144;25.200;2023-01-28T07:47:12;99696.06;;;5.24;90.27
71149;BME280;59072;42.144;25.200;2023-01-28T07:49:38;99727.88;;;5.66;95.62
71149;BME280;59072;42.144;25.200;2023-01-28T07:52:07;99731.78;;;6.25;93.03
71149;BME280;59072;42.144;25.200;2023-01-28T07:54:32;99738.19;;;6.51;87.82
71149;BME280;59072;42.144;25.200;2023-01-28T07:56:58;99734.88;;;6.35;87.17
71149;BME280;59072;42.144;25.200;2023-01-28T07:59:24;99737.66;;;6.07;87.13
71149;BME280;59072;42.144;25.200;2023-01-28T08:01:49;99735.28;;;6.32;94.78
71149;BME280;59072;42.144;25.200;2023-01-28T08:04:15;99742.31;;;6.73;86.11
71149;BME280;59072;42.144;25.200;2023-01-28T08:06:40;99748.38;;;6.54;88.19
71149;BME280;59072;42.144;25.200;2023-01-28T08:09:06;99746.34;;;6.56;86.23
71149;BME280;59072;42.144;25.200;2023-01-28T08:11:33;99755.09;;;6.50;84.99
71149;BME280;59072;42.144;25.200;2023-01-28T08:14:01;99746.31;;;6.36;84.87
71149;BME280;59072;42.144;25.200;2023-01-28T08:16:26;99728.25;;;6.04;84.69
71149;BME280;59072;42.144;25.200;2023-01-28T08:18:53;99747.84;;;6.17;86.56
71149;BME280;59072;42.144;25.200;2023-01-28T08:21:19;99756.25;;;6.27;88.16
71149;BME280;59072;42.144;25.200;2023-01-28T08:23:44;99751.88;;;5.99;84.82
71149;BME280;59072;42.144;25.200;2023-01-28T08:26:10;99763.28;;;6.07;86.12
71149;BME280;59072;42.144;25.200;2023-01-28T08:28:35;99753.56;;;6.14;86.92
71149;BME280;59072;42.144;25.200;2023-01-28T08:31:01;99751.91;;;6.06;87.04
71149;BME280;59072;42.144;25.200;2023-01-28T08:33:27;99748.13;;;5.87;85.35
71149;BME280;59072;42.144;25.200;2023-01-28T08:35:52;99766.97;;;6.06;87.64
71149;BME280;59072;42.144;25.200;2023-01-28T08:38:18;99760.47;;;6.15;87.04
71149;BME280;59072;42.144;25.200;2023-01-28T08:40:45;99747.47;;;6.13;88.40
71149;BME280;59072;42.144;25.200;2023-01-28T08:43:10;99770.41;;;6.54;87.14
71149;BME280;59072;42.144;25.200;2023-01-28T08:45:38;99752.81;;;6.33;85.94
71149;BME280;59072;42.144;25.200;2023-01-28T08:48:06;99752.94;;;6.05;84.10
71149;BME280;59072;42.144;25.200;2023-01-28T08:50:34;99760.81;;;5.98;84.02
71149;BME280;59072;42.144;25.200;2023-01-28T08:53:05;99753.13;;;6.03;85.89
71149;BME280;59072;42.144;25.200;2023-01-28T08:55:32;99756.47;;;6.32;86.36
71149;BME280;59072;42.144;25.200;2023-01-28T08:58:02;99751.19;;;6.32;83.15
71149;BME280;59072;42.144;25.200;2023-01-28T09:00:27;99750.28;;;6.12;84.16
71149;BME280;59072;42.144;25.200;2023-01-28T09:02:53;99775.13;;;6.11;87.03
71149;BME280;59072;42.144;25.200;2023-01-28T09:05:19;99761.69;;;6.12;87.13
71149;BME280;59072;42.144;25.200;2023-01-28T09:07:45;99753.13;;;6.03;85.83
71149;BME280;59072;42.144;25.200;2023-01-28T09:10:11;99758.84;;;6.07;86.52
71149;BME280;59072;42.144;25.200;2023-01-28T09:12:36;99761.03;;;5.97;87.39
71149;BME280;59072;42.144;25.200;2023-01-28T09:15:03;99760.31;;;5.88;86.80
71149;BME280;59072;42.144;25.200;2023-01-28T09:17:28;99769.97;;;5.96;88.03
71149;BME280;59072;42.144;25.200;2023-01-28T09:19:53;99752.16;;;5.83;88.25
71149;BME280;59072;42.144;25.200;2023-01-28T09:22:19;99785.69;;;6.04;89.87
71149;BME280;59072;42.144;25.200;2023-01-28T09:24:45;99780.50;;;6.24;89.04
71149;BME280;59072;42.144;25.200;2023-01-28T09:27:10;99760.81;;;5.98;86.76
71149;BME280;59072;42.144;25.200;2023-01-28T09:29:36;99772.63;;;6.02;88.52
71149;BME280;59072;42.144;25.200;2023-01-28T09:32:03;99783.69;;;6.13;87.91
71149;BME280;59072;42.144;25.200;2023-01-28T09:34:29;99775.19;;;6.17;87.92
71149;BME280;59072;42.144;25.200;2023-01-28T09:36:54;99772.81;;;6.36;87.94
71149;BME280;59072;42.144;25.200;2023-01-28T09:39:20;99777.66;;;6.26;86.31
71149;BME280;59072;42.144;25.200;2023-01-28T09:47:42;99784.22;;;6.36;86.31
71149;BME280;59072;42.144;25.200;2023-01-28T09:50:15;99782.00;;;6.47;87.60
71149;BME280;59072;42.144;25.200;2023-01-28T09:52:41;99775.06;;;6.46;85.60
71149;BME280;59072;42.144;25.200;2023-01-28T09:55:19;99767.09;;;6.46;86.92
71149;BME280;59072;42.144;25.200;2023-01-28T09:57:52;99780.97;;;6.48;87.47
71149;BME280;59072;42.144;25.200;2023-01-28T10:00:28;99780.97;;;6.48;85.11
71149;BME280;59072;42.144;25.200;2023-01-28T10:11:42;99778.22;;;6.82;86.48
71149;BME280;59072;42.144;25.200;2023-01-28T10:17:02;99768.03;;;7.13;85.64
71149;BME280;59072;42.144;25.200;2023-01-28T10:19:44;99769.47;;;7.02;86.05
71149;BME280;59072;42.144;25.200;2023-01-28T10:22:15;99769.88;;;6.92;85.58
71149;BME280;59072;42.144;25.200;2023-01-28T10:24:51;99773.34;;;6.93;84.52
71149;BME280;59072;42.144;25.200;2023-01-28T10:27:22;99775.81;;;7.14;87.36
71149;BME280;59072;42.144;25.200;2023-01-28T10:29:49;99776.00;;;7.06;85.95
71149;BME280;59072;42.144;25.200;2023-01-28T10:32:27;99746.44;;;6.82;83.81
71149;BME280;59072;42.144;25.200;2023-01-28T10:34:54;99776.22;;;7.11;83.18
71149;BME280;59072;42.144;25.200;2023-01-28T10:37:20;99777.44;;;7.35;84.18
71149;BME280;59072;42.144;25.200;2023-01-28T10:39:46;99779.47;;;7.27;82.90
71149;BME280;59072;42.144;25.200;2023-01-28T10:44:43;99778.28;;;7.36;86.64
71149;BME280;59072;42.144;25.200;2023-01-28T10:47:15;99771.72;;;7.58;83.66
71149;BME280;59072;42.144;25.200;2023-01-28T10:49:46;99772.88;;;7.89;83.69
71149;BME280;59072;42.144;25.200;2023-01-28T10:52:15;99772.34;;;8.19;80.83
71149;BME280;59072;42.144;25.200;2023-01-28T10:54:40;99766.25;;;8.18;80.31
71149;BME280;59072;42.144;25.200;2023-01-28T10:57:10;99773.22;;;8.06;77.89
71149;BME280;59072;42.144;25.200;2023-01-28T10:59:40;99765.25;;;8.06;77.74
71149;BME280;59072;42.144;25.200;2023-01-28T11:02:23;99773.06;;;8.01;79.65
71149;BME280;59072;42.144;25.200;2023-01-28T11:07:42;99784.31;;;7.90;79.24
71149;BME280;59072;42.144;25.200;2023-01-28T11:12:56;99777.94;;;8.04;72.85
71149;BME280;59072;42.144;25.200;2023-01-28T11:15:21;99754.09;;;7.77;74.88
71149;BME280;59072;42.144;25.200;2023-01-28T11:17:51;99770.44;;;7.74;74.57
71149;BME280;59072;42.144;25.200;2023-01-28T11:20:21;99773.94;;;7.75;76.07
71149;BME280;59072;42.144;25.200;2023-01-28T11:22:49;99776.41;;;7.56;74.83
71149;BME280;59072;42.144;25.200;2023-01-28T11:25:15;99777.41;;;7.55;76.34
71149;BME280;59072;42.144;25.200;2023-01-28T11:27:46;99771.72;;;7.58;77.70
71149;BME280;59072;42.144;25.200;2023-01-28T11:30:39;99770.06;;;7.71;76.86
71149;BME280;59072;42.144;25.200;2023-01-28T11:35:36;99759.63;;;7.76;75.54
71149;BME280;59072;42.144;25.200;2023-01-28T11:38:01;99748.81;;;7.77;77.30
71149;BME280;59072;42.144;25.200;2023-01-28T11:40:27;99767.50;;;8.02;74.50
71149;BME280;59072;42.144;25.200;2023-01-28T11:42:53;99762.28;;;7.76;75.90
71149;BME280;59072;42.144;25.200;2023-01-28T11:45:41;99774.13;;;7.73;75.71
71149;BME280;59072;42.144;25.200;2023-01-28T11:51:00;99772.75;;;7.51;74.42
71149;BME280;59072;42.144;25.200;2023-01-28T12:13:28;99786.00;;;7.57;71.68
71149;BME280;59072;42.144;25.200;2023-01-28T12:16:16;99760.91;;;7.47;73.94
71149;BME280;59072;42.144;25.200;2023-01-28T12:21:26;99787.22;;;7.35;75.86
71149;BME280;59072;42.144;25.200;2023-01-28T12:24:30;99792.94;;;7.58;74.61
71149;BME280;59072;42.144;25.200;2023-01-28T12:27:39;99782.34;;;7.38;74.47
71149;BME280;59072;42.144;25.200;2023-01-28T12:36:52;99795.81;;;7.50;74.49
71149;BME280;59072;42.144;25.200;2023-01-28T12:39:01;99770.91;;;7.38;74.83
71149;BME280;59072;42.144;25.200;2023-01-28T12:41:50;99776.84;;;7.13;75.29
71149;BME280;59072;42.144;25.200;2023-01-28T12:44:25;99803.16;;;7.21;75.01
71149;BME280;59072;42.144;25.200;2023-01-28T12:47:20;99800.69;;;7.13;76.86
71149;BME280;59072;42.144;25.200;2023-01-28T12:49:55;99803.97;;;7.22;74.67
71149;BME280;59072;42.144;25.200;2023-01-28T12:52:49;99789.25;;;7.13;76.48
71149;BME280;59072;42.144;25.200;2023-01-28T12:55:24;99805.38;;;7.31;76.13
71149;BME280;59072;42.144;25.200;2023-01-28T12:58:00;99791.72;;;7.28;76.12
71149;BME280;59072;42.144;25.200;2023-01-28T13:00:31;99786.00;;;7.31;77.61
71149;BME280;59072;42.144;25.200;2023-01-28T13:03:16;99814.34;;;7.63;75.94
71149;BME280;59072;42.144;25.200;2023-01-28T13:05:49;99818.63;;;7.91;71.51
71149;BME280;59072;42.144;25.200;2023-01-28T13:10:44;99808.84;;;7.18;75.57
71149;BME280;59072;42.144;25.200;2023-01-28T13:13:17;99823.97;;;7.18;77.96
71149;BME280;59072;42.144;25.200;2023-01-28T13:15:46;99831.31;;;7.22;76.45
71149;BME280;59072;42.144;25.200;2023-01-28T13:21:04;99830.03;;;6.92;78.41
71149;BME280;59072;42.144;25.200;2023-01-28T13:25:56;99813.69;;;6.81;79.59
71149;BME280;59072;42.144;25.200;2023-01-28T13:28:33;99822.91;;;6.37;75.94
71149;BME280;59072;42.144;25.200;2023-01-28T13:31:03;99844.41;;;6.14;77.24
71149;BME280;59072;42.144;25.200;2023-01-28T13:33:32;99846.47;;;5.91;74.61
71149;BME280;59072;42.144;25.200;2023-01-28T13:36:46;99834.81;;;5.85;77.17
71149;BME280;59072;42.144;25.200;2023-01-28T13:38:47;99847.53;;;5.96;76.09
71149;BME280;59072;42.144;25.200;2023-01-28T13:41:13;99853.53;;;6.05;76.56
71149;BME280;59072;42.144;25.200;2023-01-28T13:43:40;99837.63;;;5.77;76.53
71149;BME280;59072;42.144;25.200;2023-01-28T13:46:27;99838.25;;;5.79;78.61
71149;BME280;59072;42.144;25.200;2023-01-28T13:48:55;99829.03;;;5.68;78.85
71149;BME280;59072;42.144;25.200;2023-01-28T13:51:26;99858.16;;;5.75;79.97
71149;BME280;59072;42.144;25.200;2023-01-28T13:54:14;99858.97;;;5.75;81.56
71149;BME280;59072;42.144;25.200;2023-01-28T13:57:00;99860.88;;;5.88;84.47
71149;BME280;59072;42.144;25.200;2023-01-28T13:59:36;99870.84;;;6.08;86.60
71149;BME280;59072;42.144;25.200;2023-01-28T14:16:46;99880.47;;;5.66;86.67
71149;BME280;59072;42.144;25.200;2023-01-28T14:19:19;99879.34;;;5.53;88.67
71149;BME280;59072;42.144;25.200;2023-01-28T14:21:46;99882.75;;;5.47;87.93
71149;BME280;59072;42.144;25.200;2023-01-28T14:24:15;99875.16;;;5.16;89.34
71149;BME280;59072;42.144;25.200;2023-01-28T14:26:46;99864.50;;;5.09;88.06
71149;BME280;59072;42.144;25.200;2023-01-28T14:31:49;99890.81;;;5.17;89.12
71149;BME280;59072;42.144;25.200;2023-01-28T14:34:27;99891.69;;;5.24;89.36
71149;BME280;59072;42.144;25.200;2023-01-28T14:36:56;99884.41;;;5.27;90.10
71149;BME280;59072;42.144;25.200;2023-01-28T14:39:26;99872.16;;;5.04;90.48
71149;BME280;59072;42.144;25.200;2023-01-28T14:41:52;99896.16;;;5.24;90.93
71149;BME280;59072;42.144;25.200;2023-01-28T14:44:27;99875.84;;;5.03;91.46
71149;BME280;59072;42.144;25.200;2023-01-28T14:47:09;99899.13;;;5.14;93.21
71149;BME280;59072;42.144;25.200;2023-01-28T14:49:51;99911.72;;;5.34;92.40
71149;BME280;59072;42.144;25.200;2023-01-28T14:52:29;99887.03;;;5.05;94.15
71149;BME280;59072;42.144;25.200;2023-01-28T14:55:17;99880.97;;;4.90;95.59